Time;durP1;ratioP1;P1;durP2;ratioP2;P2;SDS_P1;SDS_P2;PMS_P1;PMS_P2;Temp;Humidity;BMP_temperature;BMP_pressure;BME280_temperature;BME280_humidity;BME280_pressure;Samples;Min_cycle;Max_cycle;Signal;HPM_P1;HPM_P2
2022/01/05 00:00:06;;;;;;;7.30;6.70;;;;;;;23.01;31.09;94484.13;4921063;28;103498;-55
2022/01/05 00:02:31;;;;;;;7.27;6.70;;;;;;;23.01;30.96;94478.81;4922314;28;103336;-55
2022/01/05 00:04:57;;;;;;;7.83;7.20;;;;;;;23.02;30.63;94480.38;4921191;28;103175;-55
2022/01/05 00:07:22;;;;;;;7.30;6.70;;;;;;;23.01;30.62;94473.47;4922626;28;103136;-55
2022/01/05 00:09:48;;;;;;;7.33;6.73;;;;;;;23.00;30.99;94455.91;4921945;28;103001;-55
2022/01/05 00:12:14;;;;;;;7.77;7.07;;;;;;;23.01;30.79;94452.16;4920841;28;102789;-55
2022/01/05 00:14:40;;;;;;;6.37;5.87;;;;;;;23.00;30.82;94460.44;4928135;28;102793;-55
2022/01/05 00:17:06;;;;;;;6.57;6.07;;;;;;;23.00;30.73;94466.56;4920929;28;102944;-55
2022/01/05 00:19:34;;;;;;;7.13;6.53;;;;;;;22.99;30.42;94459.66;4922123;28;102650;-55
2022/01/05 00:22:00;;;;;;;7.37;6.77;;;;;;;23.00;30.48;94466.56;4919917;28;102864;-55
2022/01/05 00:24:25;;;;;;;7.30;6.60;;;;;;;23.00;30.62;94461.22;4923011;28;103887;-55
2022/01/05 00:26:51;;;;;;;6.60;6.00;;;;;;;22.99;30.62;94464.22;4922482;28;103285;-55
2022/01/05 00:29:16;;;;;;;6.70;6.10;;;;;;;23.01;30.70;94470.81;4922284;28;102831;-55
2022/01/05 00:31:42;;;;;;;6.90;6.40;;;;;;;23.00;30.93;94468.44;4939158;28;103404;-55
2022/01/05 00:34:07;;;;;;;6.93;6.40;;;;;;;22.99;30.92;94466.88;4932604;28;103512;-55
2022/01/05 00:36:33;;;;;;;7.20;6.60;;;;;;;22.98;30.93;94460.78;4920465;28;102596;-55
2022/01/05 00:38:58;;;;;;;5.90;5.50;;;;;;;22.97;30.49;94472.53;4921591;28;102674;-55
2022/01/05 00:41:24;;;;;;;6.87;6.27;;;;;;;22.97;30.46;94464.53;4920854;28;102380;-55
2022/01/05 00:43:49;;;;;;;6.30;5.80;;;;;;;22.98;30.64;94460.78;4924293;28;102738;-55
2022/01/05 00:46:15;;;;;;;6.30;5.70;;;;;;;22.97;30.50;94461.88;4927301;28;102725;-55
2022/01/05 00:48:40;;;;;;;6.70;6.00;;;;;;;22.98;30.51;94468.75;4932321;28;102881;-55
2022/01/05 00:51:07;;;;;;;6.30;5.80;;;;;;;22.97;30.73;94466.41;4920859;28;102708;-55
2022/01/05 00:53:34;;;;;;;6.63;6.13;;;;;;;22.97;30.38;94461.09;4914796;28;103349;-55
2022/01/05 00:56:00;;;;;;;6.90;6.37;;;;;;;22.97;30.72;94474.41;4927608;28;102629;-55
2022/01/05 00:58:25;;;;;;;5.90;5.40;;;;;;;22.96;30.76;94464.88;4933419;28;102708;-55
2022/01/05 01:00:51;;;;;;;5.70;5.20;;;;;;;22.95;30.46;94466.75;4920594;28;102837;-56
2022/01/05 01:03:17;;;;;;;6.30;5.70;;;;;;;22.95;30.90;94471.28;4920650;28;102717;-55
2022/01/05 01:05:42;;;;;;;6.70;6.10;;;;;;;22.96;30.43;94470.19;4921257;28;102862;-55
2022/01/05 01:08:09;;;;;;;5.83;5.43;;;;;;;22.95;30.79;94463.31;4920815;28;103154;-55
2022/01/05 01:10:35;;;;;;;6.27;5.67;;;;;;;22.96;30.37;94459.53;4918761;28;102815;-55
2022/01/05 01:13:00;;;;;;;6.00;5.50;;;;;;;22.95;30.55;94445.44;4921213;28;102777;-55
2022/01/05 01:15:26;;;;;;;6.07;5.53;;;;;;;22.94;30.53;94438.53;4933924;28;102754;-55
2022/01/05 01:17:51;;;;;;;6.00;5.50;;;;;;;22.94;30.29;94441.22;4929444;28;102865;-55
2022/01/05 01:20:18;;;;;;;5.97;5.47;;;;;;;22.94;30.24;94443.88;4928812;28;103243;-55
2022/01/05 01:22:44;;;;;;;5.73;5.23;;;;;;;22.94;30.55;94453.75;4931365;28;102715;-55
2022/01/05 01:25:10;;;;;;;6.70;6.10;;;;;;;22.94;30.33;94451.09;4935999;28;102716;-55
2022/01/05 01:27:37;;;;;;;6.00;5.50;;;;;;;22.94;30.34;94449.19;4926683;28;102809;-55
2022/01/05 01:30:04;;;;;;;5.63;5.23;;;;;;;22.95;30.48;94447.31;4928540;28;103278;-55
2022/01/05 01:32:29;;;;;;;5.60;5.20;;;;;;;22.93;30.50;94450.31;4925417;28;103413;-55
2022/01/05 01:34:55;;;;;;;6.20;5.70;;;;;;;22.92;30.38;94442.63;4909732;28;102639;-55
2022/01/05 01:37:21;;;;;;;6.17;5.67;;;;;;;22.93;30.14;94439.66;4936353;28;103116;-55
2022/01/05 01:39:46;;;;;;;5.80;5.30;;;;;;;22.92;30.30;94438.09;4937895;28;102762;-55
2022/01/05 01:42:12;;;;;;;5.90;5.40;;;;;;;22.93;30.56;94436.97;4929632;28;103056;-55
2022/01/05 01:44:37;;;;;;;5.87;5.37;;;;;;;22.92;30.26;94438.09;4924922;28;102737;-55
2022/01/05 01:47:03;;;;;;;5.87;5.37;;;;;;;22.91;30.52;94433.84;4919347;28;102614;-55
2022/01/05 01:49:29;;;;;;;5.17;4.77;;;;;;;22.92;30.21;94434.63;4931418;28;103409;-55
2022/01/05 01:51:54;;;;;;;5.23;4.83;;;;;;;22.91;30.68;94436.53;4927234;28;102818;-55
2022/01/05 01:54:20;;;;;;;5.33;4.93;;;;;;;22.91;30.38;94430.41;4923527;28;103404;-55
2022/01/05 01:56:47;;;;;;;5.70;5.30;;;;;;;22.91;30.15;94428.53;4921432;28;102665;-55
2022/01/05 01:59:12;;;;;;;5.40;5.00;;;;;;;22.91;30.26;94431.19;4923726;28;102738;-55
2022/01/05 02:01:40;;;;;;;5.87;5.30;;;;;;;22.91;30.37;94419.75;4921892;28;104144;-55
2022/01/05 02:04:06;;;;;;;5.40;4.90;;;;;;;22.90;30.51;94426.19;4922286;28;102922;-55
2022/01/05 02:06:31;;;;;;;6.00;5.50;;;;;;;22.91;30.13;94427.75;4921221;28;102716;-55
2022/01/05 02:08:58;;;;;;;5.43;4.93;;;;;;;22.90;30.40;94426.97;4927890;28;102787;-55
2022/01/05 02:11:25;;;;;;;5.57;5.10;;;;;;;22.89;30.07;94425.41;4936339;28;103347;-55
2022/01/05 02:13:51;;;;;;;6.30;5.80;;;;;;;22.90;29.92;94426.19;4930348;28;102675;-55
2022/01/05 02:16:21;;;;;;;5.30;4.90;;;;;;;22.89;30.40;94422.75;4919597;28;102721;-55
2022/01/05 02:18:59;;;;;;;5.57;5.17;;;;;;;22.90;30.32;94423.53;4919033;28;103409;-55
2022/01/05 02:21:38;;;;;;;5.77;5.37;;;;;;;22.88;30.05;94421.19;4932223;28;102704;-55
2022/01/05 02:24:06;;;;;;;5.27;4.77;;;;;;;22.89;30.43;94422.75;4900782;28;103658;-52
2022/01/05 02:26:32;;;;;;;4.97;4.57;;;;;;;22.90;30.36;94413.66;4920936;28;102614;-52
2022/01/05 02:28:58;;;;;;;5.17;4.77;;;;;;;22.88;30.49;94410.53;4918098;28;104556;-52
2022/01/05 02:31:23;;;;;;;5.53;5.13;;;;;;;22.88;30.34;94410.53;4920766;28;103397;-52
2022/01/05 02:33:49;;;;;;;4.90;4.60;;;;;;;22.88;30.37;94407.88;4928772;28;102740;-52
2022/01/05 02:36:18;;;;;;;4.77;4.37;;;;;;;22.88;29.90;94405.19;4919116;28;102863;-52
2022/01/05 02:38:48;;;;;;;5.60;5.20;;;;;;;22.87;29.99;94400.19;4917740;28;103475;-52
2022/01/05 02:41:13;;;;;;;5.57;5.13;;;;;;;22.86;30.21;94391.44;4927460;28;102781;-52
2022/01/05 02:43:41;;;;;;;5.43;4.93;;;;;;;22.87;30.14;94403.63;4920088;28;102886;-52
2022/01/05 02:46:16;;;;;;;5.43;4.93;;;;;;;22.87;29.95;94403.63;4919326;28;102823;-52
2022/01/05 02:48:42;;;;;;;4.97;4.57;;;;;;;22.87;30.30;94392.22;4917988;28;103431;-52
2022/01/05 02:51:10;;;;;;;5.27;4.77;;;;;;;22.86;30.21;94394.09;4919645;28;102711;-52
2022/01/05 02:53:35;;;;;;;5.03;4.63;;;;;;;22.86;29.83;94396.75;4929195;28;103179;-52
2022/01/05 02:56:01;;;;;;;4.97;4.60;;;;;;;22.86;30.06;94390.66;4918759;28;102742;-52
2022/01/05 02:58:27;;;;;;;4.60;4.20;;;;;;;22.85;29.75;94384.53;4917753;28;102790;-52
2022/01/05 03:00:52;;;;;;;4.67;4.33;;;;;;;22.85;29.96;94379.22;4918539;28;104040;-52
2022/01/05 03:03:18;;;;;;;5.10;4.70;;;;;;;22.86;30.24;94377.31;4919139;28;102791;-52
2022/01/05 03:05:43;;;;;;;4.70;4.40;;;;;;;22.86;30.50;94380.78;4922646;28;102848;-52
2022/01/05 03:08:09;;;;;;;4.90;4.50;;;;;;;22.85;30.08;94381.88;4922934;28;103410;-52
2022/01/05 03:10:35;;;;;;;5.50;5.10;;;;;;;22.85;29.91;94384.53;4921971;28;102943;-52
2022/01/05 03:13:01;;;;;;;5.00;4.60;;;;;;;22.84;30.34;94388.28;4921998;28;103462;-52
2022/01/05 03:15:26;;;;;;;4.73;4.43;;;;;;;22.85;30.01;94389.09;4921563;28;102918;-52
2022/01/05 03:17:52;;;;;;;4.93;4.53;;;;;;;22.85;30.12;94381.88;4931636;28;102781;-52
2022/01/05 03:20:17;;;;;;;4.40;4.10;;;;;;;22.85;29.89;94383.75;4921635;28;102646;-52
2022/01/05 03:22:43;;;;;;;5.10;4.70;;;;;;;22.84;30.39;94384.81;4921571;28;102783;-52
2022/01/05 03:25:16;;;;;;;5.03;4.53;;;;;;;22.84;30.12;94380.28;4923077;28;103220;-53
2022/01/05 03:27:46;;;;;;;4.30;4.00;;;;;;;22.84;30.29;94388.28;4922377;28;103118;-52
2022/01/05 03:30:14;;;;;;;5.13;4.73;;;;;;;22.84;29.66;94390.94;4919984;28;103054;-52
2022/01/05 03:35:25;;;;;;;4.57;4.17;;;;;;;22.84;29.71;94382.16;4930294;28;102692;-52
2022/01/05 03:37:51;;;;;;;4.83;4.50;;;;;;;22.84;29.81;94384.81;4923415;28;103380;-52
2022/01/05 03:40:17;;;;;;;5.60;5.10;;;;;;;22.84;30.07;94385.59;4921380;28;103707;-52
2022/01/05 03:42:43;;;;;;;4.90;4.50;;;;;;;22.82;29.71;94374.50;4926213;28;103531;-52
2022/01/05 03:45:09;;;;;;;5.57;5.07;;;;;;;22.82;29.94;94385.16;4928184;28;102787;-52
2022/01/05 03:47:34;;;;;;;5.07;4.67;;;;;;;22.81;29.72;94381.69;4926289;28;102799;-52
2022/01/05 03:50:00;;;;;;;5.43;4.93;;;;;;;22.82;30.16;94379.81;4921073;28;102852;-52
2022/01/05 03:52:26;;;;;;;5.03;4.60;;;;;;;22.81;29.89;94397.66;4921612;28;103395;-52
2022/01/05 03:54:51;;;;;;;5.73;5.33;;;;;;;22.83;29.91;94400.03;4923747;28;102721;-52
2022/01/05 03:57:17;;;;;;;4.57;4.17;;;;;;;22.82;29.94;94385.16;4921508;28;103390;-52
2022/01/05 03:59:42;;;;;;;4.50;4.20;;;;;;;22.82;29.72;94385.16;4918427;28;103027;-52
2022/01/05 04:02:08;;;;;;;5.10;4.70;;;;;;;22.82;30.01;94390.47;4929910;28;103110;-52
2022/01/05 04:04:33;;;;;;;4.60;4.30;;;;;;;22.82;29.60;94393.13;4927395;28;103309;-52
2022/01/05 04:06:59;;;;;;;4.60;4.20;;;;;;;22.81;29.74;94379.00;4922119;28;103192;-52
2022/01/05 04:09:24;;;;;;;5.10;4.70;;;;;;;22.84;29.86;94388.28;4921577;28;102964;-52
2022/01/05 04:11:50;;;;;;;5.43;4.93;;;;;;;22.83;30.18;94375.28;4922214;28;102799;-52
2022/01/05 04:14:15;;;;;;;5.83;4.77;;;;;;;22.84;30.24;94374.19;4921637;28;102831;-52
2022/01/05 04:16:41;;;;;;;5.30;4.90;;;;;;;22.83;30.19;94372.63;4936956;28;103273;-52
2022/01/05 04:19:06;;;;;;;4.80;4.40;;;;;;;22.82;29.99;94355.84;4921671;28;102666;-52
2022/01/05 04:21:32;;;;;;;5.03;4.53;;;;;;;22.84;29.84;94355.53;4921587;28;102651;-52
2022/01/05 04:23:57;;;;;;;5.00;4.60;;;;;;;22.83;29.96;94360.06;4921872;28;102897;-51
2022/01/05 04:26:23;;;;;;;7.53;4.87;;;;;;;22.85;29.89;94363.22;4919914;28;103469;-53
2022/01/05 04:28:48;;;;;;;5.50;5.00;;;;;;;22.83;29.96;94349.44;4936915;28;103455;-53
2022/01/05 04:31:14;;;;;;;5.07;4.67;;;;;;;22.85;30.33;94341.91;4933539;28;102844;-53
2022/01/05 04:33:39;;;;;;;5.43;5.03;;;;;;;22.84;30.30;94332.34;4921509;28;102735;-52
2022/01/05 04:36:05;;;;;;;5.67;5.27;;;;;;;22.82;30.52;94353.19;4926009;28;102770;-52
2022/01/05 04:38:30;;;;;;;6.50;5.93;;;;;;;22.81;30.16;94348.94;4922442;28;102733;-52
2022/01/05 04:40:56;;;;;;;6.37;5.87;;;;;;;22.80;29.96;94352.69;4922125;28;102888;-49
2022/01/05 04:43:21;;;;;;;6.60;6.10;;;;;;;22.77;30.86;94361.34;4930670;28;103808;-51
2022/01/05 04:45:49;;;;;;;8.43;7.73;;;;;;;22.75;30.30;94361.66;4920243;28;102772;-51
2022/01/05 04:48:14;;;;;;;9.50;8.70;;;;;;;22.73;30.76;94358.53;4921700;28;103472;-51
2022/01/05 04:50:40;;;;;;;9.27;8.47;;;;;;;22.71;30.50;94362.63;4923996;28;102883;-51
2022/01/05 04:53:06;;;;;;;9.60;8.70;;;;;;;22.69;30.88;94359.50;4919834;28;102987;-51
2022/01/05 04:55:31;;;;;;;15.03;9.57;;;;;;;22.65;30.85;94363.88;4932268;28;103513;-52
2022/01/05 04:57:57;;;;;;;10.70;8.70;;;;;;;22.67;30.93;94359.00;4920245;28;102884;-52
2022/01/05 05:00:22;;;;;;;11.57;10.33;;;;;;;22.68;30.80;94365.94;4920329;28;102653;-52
2022/01/05 05:02:48;;;;;;;9.90;9.00;;;;;;;22.68;31.20;94364.06;4920637;28;102675;-51
2022/01/05 05:05:14;;;;;;;13.57;10.70;;;;;;;22.67;31.08;94357.13;4920590;28;103198;-51
2022/01/05 05:07:40;;;;;;;17.33;15.90;;;;;;;22.69;31.60;94370.16;4919178;28;102643;-52
2022/01/05 05:10:05;;;;;;;16.93;15.43;;;;;;;22.74;31.79;94378.75;4922409;28;102846;-52
2022/01/05 05:12:31;;;;;;;13.83;12.63;;;;;;;22.83;31.50;94380.59;4914736;28;103347;-52
2022/01/05 05:14:57;;;;;;;13.27;12.10;;;;;;;22.84;32.07;94388.28;4930927;28;102857;-52
2022/01/05 05:17:22;;;;;;;15.23;12.70;;;;;;;22.88;31.94;94399.88;4932969;28;103481;-52
2022/01/05 05:19:48;;;;;;;13.53;12.37;;;;;;;22.79;31.90;94391.09;4914703;28;103429;-53
2022/01/05 05:22:13;;;;;;;20.77;12.07;;;;;;;22.77;31.63;94399.41;4921004;28;102939;-53
2022/01/05 05:24:39;;;;;;;11.70;10.50;;;;;;;22.85;31.95;94399.75;4920441;28;103792;-51
2022/01/05 05:27:05;;;;;;;13.30;11.93;;;;;;;22.80;31.92;94403.31;4919989;28;102784;-52
2022/01/05 05:29:31;;;;;;;14.13;12.80;;;;;;;22.77;31.99;94404.72;4921168;28;103416;-51
2022/01/05 05:31:56;;;;;;;13.83;12.53;;;;;;;22.73;32.15;94406.47;4939797;28;103142;-52
2022/01/05 05:34:22;;;;;;;13.80;12.60;;;;;;;22.74;32.30;94409.91;4940260;28;103753;-51
2022/01/05 05:36:47;;;;;;;12.93;11.87;;;;;;;22.73;32.16;94406.47;4939551;28;102753;-51
2022/01/05 05:39:13;;;;;;;13.57;12.40;;;;;;;22.74;32.03;94405.38;4939598;28;102663;-51
2022/01/05 05:41:38;;;;;;;16.03;13.13;;;;;;;22.73;32.13;94413.69;4939285;28;102889;-51
2022/01/05 05:44:04;;;;;;;14.03;12.63;;;;;;;22.72;31.95;94423.56;4940256;28;103305;-52
2022/01/05 05:46:29;;;;;;;15.27;13.93;;;;;;;22.72;31.97;94414.78;4939592;28;104626;-51
2022/01/05 05:48:55;;;;;;;14.47;13.20;;;;;;;22.73;31.80;94408.34;4939606;28;102750;-51
2022/01/05 05:51:21;;;;;;;13.63;12.43;;;;;;;22.72;31.99;94426.22;4939426;28;103033;-51
2022/01/05 05:53:46;;;;;;;14.47;13.27;;;;;;;22.72;32.21;94414.78;4939876;28;103397;-51
2022/01/05 05:56:11;;;;;;;15.17;13.83;;;;;;;22.72;31.77;94415.56;4939873;28;103379;-51
2022/01/05 05:58:37;;;;;;;13.30;12.30;;;;;;;22.73;31.96;94424.34;4939170;28;102873;-51
2022/01/05 06:01:03;;;;;;;15.33;13.83;;;;;;;22.73;32.14;94424.34;4939391;28;103449;-51
2022/01/05 06:03:28;;;;;;;13.93;12.73;;;;;;;22.71;31.63;94411.34;4938432;28;102723;-51
2022/01/05 06:05:54;;;;;;;13.83;12.63;;;;;;;22.72;31.68;94426.22;4939215;28;103400;-51
2022/01/05 06:08:19;;;;;;;13.20;11.90;;;;;;;22.71;32.04;94414.00;4939504;28;102719;-51
2022/01/05 06:10:45;;;;;;;14.80;13.50;;;;;;;22.71;31.71;94418.56;4939893;28;102746;-51
2022/01/05 06:13:10;;;;;;;14.03;12.80;;;;;;;22.71;31.42;94415.88;4938682;28;102738;-51
2022/01/05 06:15:36;;;;;;;14.77;13.53;;;;;;;22.68;31.98;94406.66;4939658;28;103348;-51
2022/01/05 06:18:01;;;;;;;14.27;13.07;;;;;;;22.70;32.12;94416.97;4939101;28;102965;-51
2022/01/05 06:20:27;;;;;;;15.20;13.90;;;;;;;22.68;32.05;94417.31;4939352;28;102646;-51
2022/01/05 06:22:52;;;;;;;16.10;14.60;;;;;;;22.70;31.81;94428.41;4939580;28;102872;-51
2022/01/05 06:25:18;;;;;;;15.80;14.47;;;;;;;22.69;31.78;94431.41;4938668;28;103171;-51
2022/01/05 06:27:44;;;;;;;15.70;14.40;;;;;;;22.70;31.91;94427.63;4938485;28;102659;-52
2022/01/05 06:30:11;;;;;;;16.23;14.93;;;;;;;22.68;32.09;94449.25;4938475;28;102821;-51
2022/01/05 06:32:45;;;;;;;16.83;15.43;;;;;;;22.71;31.95;94427.31;4939025;28;102979;-51
2022/01/05 06:35:11;;;;;;;16.47;15.17;;;;;;;22.77;31.69;94434.03;4938124;28;102785;-51
2022/01/05 06:37:37;;;;;;;16.80;15.37;;;;;;;22.81;31.33;94440.28;4939175;28;102921;-51
2022/01/05 06:40:03;;;;;;;16.57;15.17;;;;;;;22.86;31.20;94443.91;4939427;28;102761;-51
2022/01/05 06:42:29;;;;;;;16.23;14.80;;;;;;;22.87;31.37;94442.81;4938699;28;103048;-51
2022/01/05 06:44:54;;;;;;;16.03;14.63;;;;;;;22.90;30.79;94440.28;4939313;28;102724;-51
2022/01/05 06:47:20;;;;;;;16.30;14.90;;;;;;;22.90;30.73;94418.97;4938120;28;103013;-51
2022/01/05 06:49:45;;;;;;;17.37;15.87;;;;;;;22.94;30.79;94443.09;4939377;28;102724;-51
2022/01/05 06:52:12;;;;;;;15.80;14.50;;;;;;;22.94;30.99;94438.53;4937995;28;103360;-51
2022/01/05 06:54:38;;;;;;;15.80;14.40;;;;;;;22.96;30.50;94438.22;4938106;28;103554;-51
2022/01/05 06:57:05;;;;;;;16.90;15.50;;;;;;;22.96;30.88;94444.31;4939128;28;103313;-52
2022/01/05 06:59:30;;;;;;;14.53;13.43;;;;;;;22.97;30.45;94435.25;4938275;28;102873;-51
2022/01/05 07:01:56;;;;;;;15.57;14.20;;;;;;;22.99;30.57;94435.69;4938995;28;102840;-51
2022/01/05 07:04:22;;;;;;;15.90;14.50;;;;;;;23.06;30.66;94430.66;4939178;28;103453;-51
2022/01/05 07:06:47;;;;;;;15.93;14.63;;;;;;;23.09;30.66;94432.69;4938537;28;102686;-51
2022/01/05 07:09:13;;;;;;;16.47;15.10;;;;;;;23.19;30.06;94425.44;4938634;28;102802;-51
2022/01/05 07:11:40;;;;;;;16.13;14.73;;;;;;;23.45;29.53;94428.75;4938808;28;103205;-51
2022/01/05 07:14:05;;;;;;;15.40;14.00;;;;;;;23.72;29.65;94426.75;4937651;28;103713;-51
2022/01/05 07:16:31;;;;;;;16.70;15.20;;;;;;;24.00;28.92;94444.56;4922980;28;102728;-51
2022/01/05 07:18:57;;;;;;;16.03;14.63;;;;;;;24.24;28.93;94438.56;4918703;28;102737;-51
2022/01/05 07:21:22;;;;;;;16.07;14.77;;;;;;;24.35;28.72;94430.94;4918624;28;103317;-51
2022/01/05 07:23:48;;;;;;;15.27;13.97;;;;;;;24.48;28.35;94437.13;4919389;28;102713;-51
2022/01/05 07:26:13;;;;;;;15.40;13.90;;;;;;;24.31;28.98;94432.72;4919346;28;102778;-51
2022/01/05 07:28:39;;;;;;;15.00;13.80;;;;;;;24.23;29.09;94447.69;4919081;28;103788;-51
2022/01/05 07:31:04;;;;;;;14.70;13.40;;;;;;;24.16;28.98;94435.94;4917625;28;102845;-51
2022/01/05 07:33:30;;;;;;;15.50;14.20;;;;;;;24.16;29.01;94444.75;4919529;28;102757;-51
2022/01/05 07:35:55;;;;;;;14.93;13.73;;;;;;;24.18;28.63;94445.19;4917925;28;102899;-51
2022/01/05 07:38:21;;;;;;;14.53;13.43;;;;;;;24.20;29.07;94426.22;4919323;28;102629;-51
2022/01/05 07:40:46;;;;;;;14.27;13.10;;;;;;;24.21;28.95;94436.56;4917727;28;103042;-51
2022/01/05 07:43:12;;;;;;;13.90;12.70;;;;;;;24.26;28.87;94443.56;4918475;28;102727;-51
2022/01/05 07:45:38;;;;;;;14.77;13.50;;;;;;;24.29;28.77;94446.41;4918502;28;102944;-51
2022/01/05 07:48:04;;;;;;;13.80;12.70;;;;;;;24.32;28.54;94433.50;4918939;28;102737;-51
2022/01/05 07:50:30;;;;;;;14.50;13.30;;;;;;;24.33;28.50;94451.84;4920468;28;103443;-51
2022/01/05 07:52:57;;;;;;;14.47;13.13;;;;;;;24.35;28.89;94459.53;4921020;28;104515;-51
2022/01/05 07:55:22;;;;;;;13.67;12.57;;;;;;;24.34;28.88;94445.41;4921997;28;102639;-51
2022/01/05 07:57:48;;;;;;;13.63;12.53;;;;;;;24.38;28.60;94442.88;4922222;28;102645;-51
2022/01/05 08:00:14;;;;;;;13.20;12.10;;;;;;;24.36;28.71;94440.53;4921565;28;102728;-51
2022/01/05 08:02:40;;;;;;;13.57;12.50;;;;;;;24.36;28.84;94445.88;4921892;28;102744;-51
2022/01/05 08:05:07;;;;;;;13.00;11.80;;;;;;;24.39;29.03;94444.44;4920489;28;102915;-51
2022/01/05 08:07:32;;;;;;;13.77;12.67;;;;;;;24.38;28.72;94443.66;4921803;28;102769;-51
2022/01/05 08:09:58;;;;;;;12.80;11.70;;;;;;;24.38;28.95;94451.66;4921654;28;103326;-51
2022/01/05 08:12:23;;;;;;;12.03;11.03;;;;;;;24.38;29.23;94459.69;4921300;28;103574;-51
2022/01/05 08:14:49;;;;;;;12.70;11.70;;;;;;;24.37;28.58;94441.31;4922318;28;103133;-51
2022/01/05 08:17:14;;;;;;;12.90;11.83;;;;;;;24.36;28.81;94461.91;4941570;28;102814;-51
2022/01/05 08:19:41;;;;;;;12.50;11.50;;;;;;;24.36;28.61;94431.75;4940465;28;102676;-51
2022/01/05 08:22:07;;;;;;;11.63;10.73;;;;;;;24.32;29.02;94433.50;4941592;28;103884;-51
2022/01/05 08:24:32;;;;;;;13.37;12.37;;;;;;;24.32;29.02;94444.19;4940924;28;103344;-51
2022/01/05 08:26:58;;;;;;;12.63;11.43;;;;;;;24.29;28.85;94435.72;4940457;28;103304;-51
2022/01/05 08:29:24;;;;;;;11.87;10.97;;;;;;;24.28;29.18;94439.47;4940183;28;103432;-51
2022/01/05 08:31:49;;;;;;;12.30;11.30;;;;;;;24.26;29.38;94436.34;4940767;28;104232;-51
2022/01/05 08:34:15;;;;;;;11.67;10.77;;;;;;;24.25;28.83;94445.47;4940803;28;103247;-51
2022/01/05 08:36:41;;;;;;;12.40;11.30;;;;;;;24.23;29.42;94426.31;4940714;28;102896;-51
2022/01/05 08:39:06;;;;;;;11.90;10.90;;;;;;;24.21;29.38;94439.22;4941094;28;103485;-51
2022/01/05 08:41:32;;;;;;;11.80;10.90;;;;;;;24.21;29.14;94436.56;4940941;28;102706;-51
2022/01/05 08:43:57;;;;;;;12.00;11.00;;;;;;;24.19;29.34;94438.00;4940862;28;102757;-51
2022/01/05 08:46:23;;;;;;;11.30;10.43;;;;;;;24.18;29.43;94434.50;4941513;28;103186;-51
2022/01/05 08:48:48;;;;;;;10.73;9.93;;;;;;;24.16;29.12;94426.06;4940758;28;102946;-51
2022/01/05 08:51:14;;;;;;;10.93;10.13;;;;;;;24.16;29.30;94447.41;4941634;28;103246;-51
2022/01/05 08:53:40;;;;;;;10.67;9.87;;;;;;;24.15;29.43;94442.41;4940385;28;102999;-51
2022/01/05 08:56:05;;;;;;;11.47;10.50;;;;;;;24.14;29.16;94433.63;4940558;28;102932;-51
2022/01/05 08:58:31;;;;;;;10.67;9.77;;;;;;;24.11;29.29;94442.28;4939737;28;104023;-51
2022/01/05 09:00:57;;;;;;;10.33;9.53;;;;;;;24.11;29.17;94434.28;4939103;28;104522;-51
2022/01/05 09:03:23;;;;;;;11.07;10.17;;;;;;;24.11;29.47;94428.16;4939645;28;102742;-51
2022/01/05 09:05:49;;;;;;;10.93;10.07;;;;;;;24.11;29.29;94426.25;4940294;28;103255;-51
2022/01/05 09:08:15;;;;;;;10.77;9.67;;;;;;;24.11;29.58;94434.28;4940125;28;103259;-51
2022/01/05 09:10:43;;;;;;;10.77;9.97;;;;;;;24.09;29.10;94425.81;4939151;28;102780;-51
2022/01/05 09:13:12;;;;;;;11.13;10.23;;;;;;;24.10;29.07;94418.59;4939872;28;102738;-51
2022/01/05 09:15:40;;;;;;;10.13;9.23;;;;;;;24.12;29.24;94430.50;4932457;28;103326;-51
2022/01/05 09:18:06;;;;;;;10.87;9.97;;;;;;;24.12;29.26;94414.47;4919255;28;102763;-51
2022/01/05 09:20:32;;;;;;;10.53;9.67;;;;;;;24.14;29.31;94412.25;4919605;28;102784;-51
2022/01/05 09:22:57;;;;;;;10.90;10.03;;;;;;;24.12;29.67;94427.81;4920291;28;102677;-51
2022/01/05 09:25:24;;;;;;;10.30;9.50;;;;;;;24.13;29.73;94413.38;4919961;28;102830;-51
2022/01/05 09:27:51;;;;;;;10.67;9.87;;;;;;;24.16;29.42;94412.72;4920306;28;102754;-51
2022/01/05 09:30:16;;;;;;;10.03;9.13;;;;;;;24.16;29.17;94409.25;4919056;28;102893;-51
2022/01/05 09:32:43;;;;;;;10.20;9.30;;;;;;;24.18;29.60;94393.69;4919331;28;103116;-51
2022/01/05 09:35:12;;;;;;;10.10;9.30;;;;;;;24.16;29.60;94394.03;4920551;28;102905;-51
2022/01/05 09:37:50;;;;;;;10.13;9.23;;;;;;;24.18;29.42;94385.69;4920186;28;103311;-51
2022/01/05 09:43:02;;;;;;;10.10;9.30;;;;;;;24.24;29.11;94379.06;4918592;28;102952;-51
2022/01/05 09:45:32;;;;;;;9.70;8.90;;;;;;;24.23;29.60;94372.94;4920357;28;102761;-51
2022/01/05 09:48:06;;;;;;;10.10;9.30;;;;;;;24.25;29.08;94365.38;4919803;28;102839;-51
2022/01/05 09:50:35;;;;;;;9.10;8.40;;;;;;;24.29;29.60;94360.97;4919844;28;103212;-51
2022/01/05 09:53:02;;;;;;;10.00;9.20;;;;;;;24.34;29.32;94361.84;4919880;28;102771;-51
2022/01/05 09:55:28;;;;;;;9.87;9.07;;;;;;;24.33;29.31;94358.41;4919978;28;102820;-51
2022/01/05 09:57:55;;;;;;;10.40;9.40;;;;;;;24.34;29.33;94359.97;4920138;28;102803;-51
2022/01/05 10:00:21;;;;;;;8.63;8.03;;;;;;;24.37;29.36;94362.00;4919756;28;102779;-51
2022/01/05 10:02:49;;;;;;;9.10;8.40;;;;;;;24.38;29.10;94355.56;4919788;28;102819;-51
2022/01/05 10:05:16;;;;;;;9.37;8.57;;;;;;;24.39;29.54;94348.31;4919556;28;102900;-51
2022/01/05 10:07:42;;;;;;;9.30;8.53;;;;;;;24.42;29.48;94344.97;4919988;28;102852;-51
2022/01/05 10:10:09;;;;;;;9.50;8.80;;;;;;;24.42;29.17;94347.66;4919321;28;102745;-51
2022/01/05 10:12:35;;;;;;;9.23;8.43;;;;;;;24.44;29.33;94340.09;4919143;28;102747;-51
2022/01/05 10:15:01;;;;;;;9.50;8.70;;;;;;;24.42;29.28;94342.31;4922653;28;103078;-51
2022/01/05 10:17:30;;;;;;;9.90;9.10;;;;;;;24.44;29.69;94340.09;4938890;28;103171;-51
2022/01/05 10:20:05;;;;;;;8.80;8.07;;;;;;;24.41;29.76;94333.53;4938071;28;102775;-51
2022/01/05 10:22:35;;;;;;;10.20;9.40;;;;;;;24.40;29.34;94326.63;4939379;28;103157;-51
2022/01/05 10:25:03;;;;;;;9.50;8.70;;;;;;;24.41;29.54;94335.41;4939043;28;103105;-51
2022/01/05 10:27:30;;;;;;;9.63;8.83;;;;;;;24.39;29.64;94317.06;4937750;28;102813;-51
2022/01/05 10:30:08;;;;;;;9.63;8.83;;;;;;;24.39;29.30;94310.94;4938515;28;103402;-51
2022/01/05 10:32:34;;;;;;;9.57;8.80;;;;;;;24.38;29.30;94314.72;4938361;28;102924;-51
2022/01/05 10:35:11;;;;;;;9.33;8.53;;;;;;;24.36;29.24;94308.94;4938857;28;102855;-51
2022/01/05 10:37:42;;;;;;;9.70;8.90;;;;;;;24.35;29.81;94310.78;4938802;28;103126;-51
2022/01/05 10:40:17;;;;;;;9.60;8.80;;;;;;;24.35;29.66;94300.13;4938488;28;102660;-51
2022/01/05 10:42:43;;;;;;;9.10;8.40;;;;;;;24.33;29.59;94298.91;4937891;28;102890;-51
2022/01/05 10:45:12;;;;;;;9.43;8.63;;;;;;;24.35;29.93;94291.31;4939099;28;102769;-51
2022/01/05 10:47:38;;;;;;;8.73;8.13;;;;;;;24.35;29.68;94296.66;4938692;28;104435;-51
2022/01/05 10:50:06;;;;;;;10.27;9.37;;;;;;;24.34;29.81;94290.56;4938652;28;102728;-51
2022/01/05 10:52:35;;;;;;;9.47;8.77;;;;;;;24.33;29.76;94296.22;4938527;28;102722;-51
2022/01/05 10:55:18;;;;;;;8.80;8.17;;;;;;;24.32;29.82;94273.31;4938388;28;102713;-51
2022/01/05 10:58:11;;;;;;;10.13;9.33;;;;;;;24.34;29.72;94281.75;4938169;28;103470;-51
2022/01/05 11:00:47;;;;;;;9.73;8.93;;;;;;;24.32;29.65;94271.41;4937220;28;102742;-51
2022/01/05 11:03:35;;;;;;;9.77;9.07;;;;;;;24.32;29.69;94286.66;4952771;28;104698;-51
2022/01/05 11:06:15;;;;;;;8.77;8.10;;;;;;;24.30;29.69;94278.97;4938513;28;102951;-51
2022/01/05 11:08:55;;;;;;;9.77;8.97;;;;;;;24.30;29.58;94277.09;4938437;28;102724;-51
2022/01/05 11:11:49;;;;;;;9.30;8.60;;;;;;;24.29;30.15;94259.53;4937495;28;102696;-51
2022/01/05 11:14:20;;;;;;;9.67;8.87;;;;;;;24.29;30.10;94261.41;4935806;28;102693;-51
2022/01/05 11:16:53;;;;;;;10.00;9.20;;;;;;;24.27;29.63;94256.38;4921579;28;102754;-51
2022/01/05 11:19:38;;;;;;;9.57;8.80;;;;;;;24.28;29.68;94259.81;4917667;28;103449;-51
2022/01/05 11:22:05;;;;;;;9.93;9.13;;;;;;;24.27;29.59;94251.03;4917939;28;103258;-51